Pinconning, MI (48650)

10:36 AM EDT on August 29, 2015 (GMT -0400)
Pinconning farm country, (Pintucky Hawg Farm) | | Change Station
CLOSE
Current Station
Personal Weather Station
Location: Pinconning, MI
Elevation: 623 ft
Nearby Weather Stations

Elev 623 ft 43.82 °N, 84.03 °W | Updated 12 minutes ago

Mostly Cloudy
Mostly Cloudy
63.3 °F
Feels Like 63.3 °F
N
1.6
Wind Variable Wind from West

Today
High -- | Low -- °F
--% Chance of Precip.
Yesterday
High -- | Low -- °F
Precip. -- in
6:55 AM 8:17 PM
Full, 100% visible
Pressure 30.12 in
Visibility 7.0 miles
Clouds Scattered Clouds 3800 ft
Mostly Cloudy 4600 ft
Overcast 11000 ft
Dew Point 60 °F
Humidity 89%
Rainfall 0.04 in
Snow Depth Not available.
UV 1 out of 12
Pollen 9.00 out of 12
Air Quality Not available.
Flu Activity Not available.
METAR KIKW 291413Z AUTO 00000KT 7SM -RA SCT038 BKN046 OVC110 17/16 A3012 RMK AO2 T01720160
Pressure 30.12 in
Visibility 7.0 miles
Clouds Scattered Clouds 3800 ft
Mostly Cloudy 4600 ft
Overcast 11000 ft
Dew Point 60 °F
Humidity 89%
Rainfall 0.04 in
Snow Depth Not available.
UV 1 out of 12
Pollen 9.00 out of 12
Air Quality Not available.
Flu Activity Not available.
METAR KIKW 291413Z AUTO 00000KT 7SM -RA SCT038 BKN046 OVC110 17/16 A3012 RMK AO2 T01720160

10-Day Weather Forecast

×

Almanac

Astronomy

Aug. 29, 2015 Rise Set
Actual Time
Civil Twilight
Nautical Twilight
Astronomical Twilight
Moon
Length of Visible Light
Length of Day
Tomorrow will be .
, % of the Moon is Illuminated

Today's Extremes

State Highs State Lows

Community

WunderPhotos

Upload Photos

1,850,706 photos uploaded!

WunderBlogs® & News

Nearby

Air Quality

  Air Quality AQ Index Pollutant
Not available.

Snow Depth

Station Depth Elevation

Earthquake Activity

City Distance Mag. Time & Date
Minimum magnitude displayed is 2.5.

Coastal Water Temperatures

Place Temperature

Stations

Nearby Weather Stations

Station Location Temp. Windchill Dew Point Humidity Wind Precip. Elev Updated Type